Rupert, Georgia
Current Conditions -  °F | °C
As of 9:55 PM on Friday 19 Dec 2014 (Local Time) from KACJ Reporting Station
Moderate Rain Moderate Rain  
Wind Chill: 50°   Ceiling: 11000
Heat Index: 50°   Visibility: 10mi
Dew Point: 41°   Wind: 3mph
Humidity: 71%   Direction: 360°N
Pressure: 30.15"   Gusts: NA
Location:  32.45°N, 84.28°W
Report Text: KACJ 200255Z AUTO 36003KT 10SM RA SCT039 SCT050 OVC110 10/05 A3015 RMK AO2
Loading
Personal Weather Stations






























Interactive Weather Map New forecast layout! Learn more

10-Day Weather Forecast

Advertisements
Track Severe Weather on mobile